Fayette, Mississippi
Current Conditions -  °F | °C
As of 7:15 PM on Friday 28 Nov 2014 (Local Time) from KHEZ Reporting Station
Clear Clear  
Wind Chill: 50°   Ceiling: Unl
Heat Index: 50°   Visibility: 10mi
Dew Point: 30°   Wind: 8mph
Humidity: 47%   Direction: 160°SSE
Pressure: 30.23"   Gusts: NA
Location:  31.71°N, 91.06°W
Report Text: KHEZ 290115Z AUTO 16007KT 10SM CLR 10/M01 A3023 RMK AO1
Loading
Personal Weather Stations






























Interactive Weather Map New forecast layout! Learn more

10-Day Weather Forecast

Advertisements
Track Severe Weather on mobile